createdAt,value
2018-12-04T00:00:21.305Z,4.93
2018-12-04T00:03:01.851Z,5.73
2018-12-04T00:05:48.753Z,4.37
2018-12-04T00:08:36.112Z,4.68
2018-12-04T00:11:17.055Z,4.27
2018-12-04T00:13:57.356Z,4.07
2018-12-04T00:16:36.972Z,4.37
2018-12-04T00:19:18.053Z,4.77
2018-12-04T00:24:59.910Z,3.63
2018-12-04T00:27:39.983Z,5.17
2018-12-04T00:30:22.898Z,4.57
2018-12-04T00:33:02.199Z,5.30
2018-12-04T00:35:42.991Z,5.57
2018-12-04T00:38:32.281Z,4.83
2018-12-04T00:41:13.846Z,4.70
2018-12-04T00:43:53.886Z,5.73
2018-12-04T00:46:34.470Z,4.87
2018-12-04T00:49:14.412Z,4.90
2018-12-04T00:51:54.642Z,4.57
2018-12-04T00:54:36.363Z,4.87
2018-12-04T00:57:16.894Z,4.90
2018-12-04T00:59:56.571Z,5.00
2018-12-04T01:02:36.307Z,6.33
2018-12-04T01:05:26.387Z,5.00
2018-12-04T01:08:05.128Z,5.30
2018-12-04T01:10:44.178Z,6.33
2018-12-04T01:13:23.165Z,5.43
2018-12-04T01:16:03.163Z,5.43
2018-12-04T01:18:41.883Z,5.70
2018-12-04T01:21:20.932Z,6.10
2018-12-04T01:23:59.328Z,6.43
2018-12-04T01:26:38.048Z,6.97
2018-12-04T01:29:16.976Z,7.43
2018-12-04T01:31:56.118Z,5.97
2018-12-04T01:34:35.072Z,3.83
2018-12-04T01:37:15.000Z,3.40
2018-12-04T01:39:54.650Z,4.70
2018-12-04T01:42:35.168Z,5.33
2018-12-04T01:45:14.768Z,5.30
2018-12-04T01:47:55.022Z,4.30
2018-12-04T01:50:37.371Z,5.20
2018-12-04T01:53:17.595Z,4.00
2018-12-04T01:56:15.407Z,4.90
2018-12-04T01:58:54.792Z,4.30
2018-12-04T02:01:42.725Z,4.00
2018-12-04T02:04:24.649Z,4.50
2018-12-04T02:07:05.889Z,4.93
2018-12-04T02:09:44.813Z,4.47
2018-12-04T02:12:30.323Z,4.83
2018-12-04T02:15:12.182Z,5.07
2018-12-04T02:17:55.345Z,4.30
2018-12-04T02:20:34.463Z,3.77
2018-12-04T02:23:14.493Z,3.80
2018-12-04T02:25:53.519Z,3.87
2018-12-04T02:28:36.592Z,4.20
2018-12-04T02:31:25.943Z,3.92
2018-12-04T02:34:08.080Z,4.33
2018-12-04T02:36:48.440Z,4.17
2018-12-04T02:39:30.663Z,4.30
2018-12-04T02:42:10.833Z,4.37
2018-12-04T02:44:54.426Z,4.67
2018-12-04T02:47:38.719Z,4.30
2018-12-04T02:50:20.894Z,4.40
2018-12-04T02:53:00.592Z,3.33
2018-12-04T02:55:42.575Z,4.37
2018-12-04T02:58:22.812Z,4.40
2018-12-04T03:01:02.656Z,3.90
2018-12-04T03:03:43.058Z,5.70
2018-12-04T03:06:28.204Z,3.83
2018-12-04T03:09:13.291Z,4.17
2018-12-04T03:14:51.708Z,4.57
2018-12-04T03:17:31.016Z,3.73
2018-12-04T03:20:10.886Z,4.70
2018-12-04T03:22:50.188Z,3.53
2018-12-04T03:25:30.254Z,4.90
2018-12-04T03:28:10.331Z,3.77
2018-12-04T03:30:53.244Z,3.43
2018-12-04T03:33:48.365Z,3.43
2018-12-04T03:36:29.856Z,3.80
2018-12-04T03:39:11.426Z,3.87
2018-12-04T03:42:00.653Z,3.23
2018-12-04T03:45:14.216Z,3.43
2018-12-04T03:47:59.917Z,3.13
2018-12-04T03:50:40.004Z,3.53
2018-12-04T03:53:20.415Z,4.63
2018-12-04T03:59:21.023Z,3.67
2018-12-04T04:01:59.933Z,3.13
2018-12-04T04:04:39.009Z,4.00
2018-12-04T04:07:18.081Z,3.57
2018-12-04T04:09:57.497Z,3.17
2018-12-04T04:12:37.872Z,3.53
2018-12-04T04:15:16.853Z,3.30
2018-12-04T04:17:55.902Z,2.53
2018-12-04T04:20:36.142Z,2.77
2018-12-04T04:23:16.283Z,2.33
2018-12-04T04:25:56.387Z,2.10
2018-12-04T04:28:36.968Z,3.03
2018-12-04T04:31:16.031Z,2.67
2018-12-04T04:33:55.037Z,2.77
2018-12-04T04:36:33.969Z,2.90
2018-12-04T04:39:14.926Z,2.70
2018-12-04T04:41:53.821Z,2.70
2018-12-04T04:44:44.648Z,3.13
2018-12-04T04:47:24.017Z,2.67
2018-12-04T04:50:02.805Z,3.20
2018-12-04T04:52:41.545Z,2.90
2018-12-04T04:55:21.083Z,3.20
2018-12-04T04:57:59.580Z,2.70
2018-12-04T05:00:39.183Z,3.03
2018-12-04T05:03:18.080Z,3.00
2018-12-04T05:05:56.923Z,3.33
2018-12-04T05:08:35.725Z,4.40
2018-12-04T05:11:14.758Z,2.83
2018-12-04T05:13:53.897Z,3.20
2018-12-04T05:16:32.690Z,3.87
2018-12-04T05:19:11.627Z,3.07
2018-12-04T05:21:50.295Z,3.73
2018-12-04T05:24:29.129Z,4.03
2018-12-04T05:27:07.502Z,4.20
2018-12-04T05:29:46.237Z,3.73
2018-12-04T05:32:25.102Z,5.37
2018-12-04T05:35:06.579Z,2.80
2018-12-04T05:37:51.017Z,3.10
2018-12-04T05:40:29.982Z,2.10
2018-12-04T05:43:08.644Z,2.93
2018-12-04T05:45:48.284Z,3.97
2018-12-04T05:48:27.802Z,3.00
2018-12-04T05:51:12.846Z,2.93
2018-12-04T05:53:51.568Z,4.00
2018-12-04T05:56:31.031Z,3.10
2018-12-04T05:59:10.420Z,4.20
2018-12-04T06:01:49.439Z,2.00
2018-12-04T06:04:27.936Z,2.37
2018-12-04T06:07:06.763Z,2.60
2018-12-04T06:09:46.947Z,2.80
2018-12-04T06:12:30.398Z,2.33
2018-12-04T06:15:17.510Z,3.63
2018-12-04T06:22:08.694Z,3.33
2018-12-04T06:24:50.167Z,3.47
2018-12-04T06:27:43.701Z,2.87
2018-12-04T06:34:21.385Z,5.97
2018-12-04T06:40:57.166Z,3.60
2018-12-04T06:43:36.841Z,3.47
2018-12-04T06:46:15.991Z,4.30
2018-12-04T06:48:55.349Z,3.80
2018-12-04T06:51:37.504Z,3.83
2018-12-04T06:57:21.364Z,4.57
2018-12-04T07:00:10.958Z,4.27
2018-12-04T07:02:52.457Z,4.00
2018-12-04T07:05:32.379Z,3.03
2018-12-04T07:08:17.377Z,3.77
2018-12-04T07:10:56.457Z,3.63
2018-12-04T07:13:35.416Z,3.90
2018-12-04T07:16:14.648Z,4.70
2018-12-04T07:18:54.009Z,4.93
2018-12-04T07:21:33.128Z,3.40
2018-12-04T07:24:12.284Z,3.87
2018-12-04T07:26:51.391Z,3.90
2018-12-04T07:29:30.865Z,3.37
2018-12-04T07:32:09.943Z,3.97
2018-12-04T07:34:50.799Z,5.33
2018-12-04T07:37:29.748Z,5.27
2018-12-04T07:40:09.667Z,3.83
2018-12-04T07:42:49.089Z,3.50
2018-12-04T07:45:28.936Z,4.33
2018-12-04T07:48:08.158Z,3.60
2018-12-04T07:50:47.407Z,3.50
2018-12-04T07:53:27.753Z,4.00
2018-12-04T07:56:07.533Z,3.27
2018-12-04T07:59:27.716Z,4.10
2018-12-04T08:02:11.456Z,3.63
2018-12-04T08:07:40.162Z,5.17
2018-12-04T08:10:27.793Z,4.80
2018-12-04T08:13:07.645Z,4.33
2018-12-04T08:15:49.439Z,4.53
2018-12-04T08:18:29.455Z,5.03
2018-12-04T08:21:12.205Z,4.50
2018-12-04T08:23:53.197Z,4.87
2018-12-04T08:29:31.777Z,4.30
2018-12-04T08:32:12.180Z,4.70
2018-12-04T08:34:55.585Z,5.27
2018-12-04T08:37:35.670Z,5.67
2018-12-04T08:40:16.120Z,6.07
2018-12-04T08:42:58.902Z,5.33
2018-12-04T08:45:39.270Z,6.00
2018-12-04T08:48:19.566Z,5.03
2018-12-04T08:51:01.872Z,4.80
2018-12-04T08:53:44.178Z,6.00
2018-12-04T08:56:23.702Z,5.77
2018-12-04T08:59:02.736Z,5.70
2018-12-04T09:01:41.743Z,5.97
2018-12-04T09:04:21.082Z,6.47
2018-12-04T09:07:00.901Z,6.00
2018-12-04T09:09:41.293Z,6.70
2018-12-04T09:12:21.852Z,8.63
2018-12-04T09:15:01.750Z,7.37
2018-12-04T09:17:41.119Z,6.67
2018-12-04T09:20:20.460Z,8.00
2018-12-04T09:22:59.840Z,6.50
2018-12-04T09:25:38.866Z,7.87
2018-12-04T09:28:19.112Z,7.93
2018-12-04T09:30:58.804Z,11.00
2018-12-04T09:33:38.891Z,8.83
2018-12-04T09:36:18.430Z,9.07
2018-12-04T09:38:59.263Z,9.03
2018-12-04T09:41:40.927Z,10.80
2018-12-04T09:44:25.267Z,9.60
2018-12-04T10:00:44.833Z,10.43
2018-12-04T10:06:38.680Z,10.93
2018-12-04T10:09:28.109Z,10.67
2018-12-04T10:12:18.800Z,10.10
2018-12-04T10:15:05.641Z,11.97
2018-12-04T10:18:01.056Z,15.23
2018-12-04T10:20:46.926Z,14.70
2018-12-04T10:26:27.762Z,13.30
2018-12-04T10:29:12.314Z,15.47
2018-12-04T10:31:56.501Z,13.63
2018-12-04T10:34:38.969Z,17.33
2018-12-04T10:37:25.606Z,13.33
2018-12-04T10:40:06.881Z,13.17
2018-12-04T10:42:58.056Z,12.50
2018-12-04T10:45:47.367Z,10.97
2018-12-04T10:48:28.173Z,9.07
2018-12-04T10:51:08.688Z,8.10
2018-12-04T10:53:48.841Z,8.23
2018-12-04T10:56:32.363Z,7.33
2018-12-04T10:59:14.476Z,8.10
2018-12-04T11:02:00.120Z,6.77
2018-12-04T11:07:38.577Z,7.00
2018-12-04T11:13:25.866Z,6.13
2018-12-04T11:16:12.235Z,6.83
2018-12-04T11:18:52.390Z,5.93
2018-12-04T11:21:34.724Z,7.43
2018-12-04T11:24:19.867Z,5.97
2018-12-04T11:27:02.738Z,5.87
2018-12-04T11:30:01.176Z,6.53
2018-12-04T11:32:42.095Z,5.47
2018-12-04T11:35:24.614Z,5.17
2018-12-04T11:38:07.720Z,5.43
2018-12-04T11:40:47.983Z,5.53
2018-12-04T11:43:31.387Z,5.53
2018-12-04T11:46:11.974Z,6.33
2018-12-04T11:48:53.881Z,5.80
2018-12-04T11:51:36.934Z,6.03
2018-12-04T11:54:20.616Z,6.70
2018-12-04T11:57:01.580Z,6.23
2018-12-04T11:59:42.944Z,6.43
2018-12-04T12:02:23.616Z,8.00
2018-12-04T12:05:05.634Z,7.53
2018-12-04T12:07:45.711Z,7.50
2018-12-04T12:10:27.245Z,7.93
2018-12-04T12:13:09.465Z,7.30
2018-12-04T12:15:53.813Z,6.80
2018-12-04T12:18:36.225Z,5.53
2018-12-04T12:21:17.620Z,5.80
2018-12-04T12:24:01.813Z,6.07
2018-12-04T12:26:47.920Z,6.20
2018-12-04T12:29:29.248Z,5.83
2018-12-04T12:32:11.535Z,6.03
2018-12-04T12:34:52.397Z,6.57
2018-12-04T12:37:36.294Z,5.03
2018-12-04T12:40:21.358Z,5.73
2018-12-04T12:43:03.247Z,5.70
2018-12-04T12:45:47.165Z,7.07
2018-12-04T12:48:28.029Z,5.70
2018-12-04T12:51:07.706Z,5.37
2018-12-04T12:53:48.057Z,4.90
2018-12-04T12:56:28.953Z,4.33
2018-12-04T12:59:09.085Z,5.03
2018-12-04T13:01:50.079Z,5.40
2018-12-04T13:04:30.902Z,4.50
2018-12-04T13:07:12.235Z,5.20
2018-12-04T13:12:56.029Z,5.83
2018-12-04T13:15:39.062Z,4.97
2018-12-04T13:18:23.179Z,5.37
2018-12-04T13:21:06.265Z,4.90
2018-12-04T13:23:51.607Z,5.53
2018-12-04T13:26:39.865Z,5.20
2018-12-04T13:29:26.974Z,5.10
2018-12-04T13:32:09.393Z,5.37
2018-12-04T13:34:54.032Z,6.17
2018-12-04T13:37:39.729Z,5.37
2018-12-04T13:40:21.430Z,5.53
2018-12-04T13:43:02.401Z,5.10
2018-12-04T13:45:42.806Z,5.57
2018-12-04T13:48:26.973Z,5.60
2018-12-04T13:51:10.215Z,4.50
2018-12-04T13:53:56.728Z,5.17
2018-12-04T13:59:28.369Z,5.23
2018-12-04T14:02:15.724Z,5.33
2018-12-04T14:05:02.523Z,5.03
2018-12-04T14:07:46.564Z,5.07
2018-12-04T14:10:29.196Z,5.63
2018-12-04T14:13:13.685Z,5.37
2018-12-04T14:15:58.789Z,5.30
2018-12-04T14:18:41.879Z,6.20
2018-12-04T14:21:27.211Z,4.83
2018-12-04T14:24:11.536Z,4.93
2018-12-04T14:26:54.145Z,4.90
2018-12-04T14:29:44.879Z,4.43
2018-12-04T14:32:30.410Z,7.43
2018-12-04T14:35:14.487Z,5.37
2018-12-04T14:37:58.926Z,4.43
2018-12-04T14:40:44.914Z,5.00
2018-12-04T14:43:29.144Z,5.57
2018-12-04T14:46:13.667Z,5.60
2018-12-04T14:48:58.076Z,6.13
2018-12-04T14:51:39.625Z,5.23
2018-12-04T14:54:20.910Z,4.53
2018-12-04T14:57:02.100Z,4.67
2018-12-04T14:59:43.866Z,4.27
2018-12-04T15:02:25.397Z,5.67
2018-12-04T15:05:06.851Z,3.80
2018-12-04T15:07:49.061Z,4.37
2018-12-04T15:10:31.674Z,3.90
2018-12-04T15:13:12.840Z,3.63
2018-12-04T15:15:53.794Z,4.13
2018-12-04T15:18:36.861Z,4.07
2018-12-04T15:21:17.591Z,4.57
2018-12-04T15:23:57.363Z,4.90
2018-12-04T15:26:39.976Z,4.57
2018-12-04T15:29:23.075Z,5.67
2018-12-04T15:32:05.595Z,4.50
2018-12-04T15:34:46.769Z,4.67
2018-12-04T15:37:28.439Z,4.07
2018-12-04T15:40:13.592Z,4.10
2018-12-04T15:42:54.497Z,4.00
2018-12-04T15:45:36.358Z,4.37
2018-12-04T15:48:17.214Z,4.23
2018-12-04T15:51:00.088Z,4.37
2018-12-04T15:53:42.175Z,4.13
2018-12-04T15:56:23.970Z,4.43
2018-12-04T15:59:04.582Z,5.00
2018-12-04T16:01:45.114Z,4.33
2018-12-04T16:04:25.614Z,4.90
2018-12-04T16:07:05.674Z,4.40
2018-12-04T16:09:45.437Z,4.13
2018-12-04T16:12:27.138Z,5.83
2018-12-04T16:15:07.423Z,4.57
2018-12-04T16:17:48.184Z,4.80
2018-12-04T16:20:28.138Z,4.90
2018-12-04T16:23:08.986Z,4.20
2018-12-04T16:25:48.673Z,5.53
2018-12-04T16:28:29.331Z,5.20
2018-12-04T16:31:10.222Z,4.83
2018-12-04T16:33:58.232Z,5.10
2018-12-04T16:36:40.632Z,5.80
2018-12-04T16:39:21.462Z,5.20
2018-12-04T16:42:01.544Z,6.17
2018-12-04T16:44:44.044Z,5.53
2018-12-04T16:47:23.396Z,5.07
2018-12-04T16:50:03.783Z,5.93
2018-12-04T16:52:43.958Z,5.70
2018-12-04T16:55:24.091Z,5.10
2018-12-04T16:58:04.680Z,5.20
2018-12-04T17:00:45.866Z,5.17
2018-12-04T17:03:25.626Z,4.90
2018-12-04T17:06:05.016Z,4.57
2018-12-04T17:08:48.399Z,4.93
2018-12-04T17:11:27.344Z,4.93
2018-12-04T17:14:06.539Z,5.77
2018-12-04T17:16:49.559Z,5.13
2018-12-04T17:19:28.649Z,5.27
2018-12-04T17:22:07.813Z,5.00
2018-12-04T17:24:48.342Z,5.60
2018-12-04T17:27:27.408Z,4.97
2018-12-04T17:30:06.810Z,5.60
2018-12-04T17:32:46.483Z,4.80
2018-12-04T17:35:26.853Z,5.17
2018-12-04T17:38:06.040Z,4.60
2018-12-04T17:40:45.243Z,4.97
2018-12-04T17:43:24.266Z,4.63
2018-12-04T17:46:03.065Z,4.23
2018-12-04T17:48:42.510Z,4.70
2018-12-04T17:51:21.926Z,4.60
2018-12-04T17:54:00.906Z,4.20
2018-12-04T17:56:41.595Z,5.23
2018-12-04T17:59:20.671Z,4.10
2018-12-04T18:01:59.615Z,4.57
2018-12-04T18:04:38.696Z,4.23
2018-12-04T18:07:17.522Z,4.43
2018-12-04T18:09:56.362Z,3.70
2018-12-04T18:12:35.181Z,3.50
2018-12-04T18:15:14.590Z,3.63
2018-12-04T18:17:53.899Z,3.03
2018-12-04T18:20:34.867Z,3.80
2018-12-04T18:23:13.620Z,3.17
2018-12-04T18:25:52.689Z,3.50
2018-12-04T18:28:32.605Z,4.00
2018-12-04T18:31:11.512Z,3.67
2018-12-04T18:33:50.350Z,4.27
2018-12-04T18:36:29.850Z,3.77
2018-12-04T18:39:12.699Z,4.10
2018-12-04T18:41:52.028Z,4.20
2018-12-04T18:44:32.463Z,4.13
2018-12-04T18:47:11.830Z,4.23
2018-12-04T18:49:51.158Z,3.67
2018-12-04T18:52:30.259Z,5.07
2018-12-04T18:55:13.593Z,3.80
2018-12-04T18:57:53.186Z,4.43
2018-12-04T19:00:32.728Z,4.00
2018-12-04T19:03:11.895Z,3.77
2018-12-04T19:05:52.158Z,3.77
2018-12-04T19:08:37.159Z,4.00
2018-12-04T19:11:16.243Z,4.10
2018-12-04T19:13:55.101Z,4.27
2018-12-04T19:16:34.101Z,4.17
2018-12-04T19:21:58.020Z,3.17
2018-12-04T19:24:37.740Z,3.80
2018-12-04T19:30:08.821Z,3.97
2018-12-04T19:32:48.050Z,4.00
2018-12-04T19:35:27.333Z,3.60
2018-12-04T19:38:15.003Z,3.43
2018-12-04T19:40:56.000Z,4.07
2018-12-04T19:43:36.426Z,3.97
2018-12-04T19:46:15.363Z,3.77
2018-12-04T19:48:54.734Z,3.70
2018-12-04T19:51:33.925Z,3.80
2018-12-04T19:54:13.773Z,4.33
2018-12-04T19:56:52.556Z,4.50
2018-12-04T19:59:31.300Z,5.60
2018-12-04T20:02:11.393Z,4.87
2018-12-04T20:04:51.750Z,4.60
2018-12-04T20:07:30.846Z,4.73
2018-12-04T20:10:11.136Z,4.43
2018-12-04T20:12:51.499Z,5.33
2018-12-04T20:15:30.681Z,4.80
2018-12-04T20:18:10.085Z,4.53
2018-12-04T20:20:50.993Z,5.03
2018-12-04T20:23:29.933Z,5.30
2018-12-04T20:26:08.819Z,4.43
2018-12-04T20:28:47.552Z,4.27
2018-12-04T20:31:27.337Z,4.63
2018-12-04T20:34:06.249Z,4.80
2018-12-04T20:36:46.108Z,4.17
2018-12-04T20:39:25.265Z,4.93
2018-12-04T20:42:10.305Z,4.07
2018-12-04T20:44:53.997Z,4.27
2018-12-04T20:47:47.147Z,4.50
2018-12-04T20:50:26.894Z,5.00
2018-12-04T20:53:05.768Z,3.97
2018-12-04T20:55:44.629Z,4.63
2018-12-04T20:58:23.883Z,4.30
2018-12-04T21:01:03.863Z,4.27
2018-12-04T21:03:42.473Z,4.93
2018-12-04T21:06:20.844Z,3.97
2018-12-04T21:09:01.460Z,4.43
2018-12-04T21:11:40.253Z,5.57
2018-12-04T21:14:20.141Z,4.60
2018-12-04T21:16:59.932Z,5.10
2018-12-04T21:19:38.682Z,5.17
2018-12-04T21:22:18.033Z,5.20
2018-12-04T21:24:56.951Z,5.77
2018-12-04T21:27:39.177Z,5.57
2018-12-04T21:30:23.388Z,4.50
2018-12-04T21:33:06.555Z,5.13
2018-12-04T21:35:49.825Z,6.03
2018-12-04T21:38:33.861Z,5.87
2018-12-04T21:41:16.236Z,4.87
2018-12-04T21:45:00.181Z,4.90
2018-12-04T21:47:44.399Z,4.80
2018-12-04T21:50:23.227Z,4.67
2018-12-04T21:53:03.170Z,5.87
2018-12-04T21:55:45.246Z,6.20
2018-12-04T21:58:23.920Z,5.77
2018-12-04T22:01:02.398Z,6.23
2018-12-04T22:04:05.505Z,4.47
2018-12-04T22:06:48.660Z,4.63
2018-12-04T22:09:40.048Z,4.70
2018-12-04T22:12:24.474Z,5.57
2018-12-04T22:15:02.963Z,5.40
2018-12-04T22:17:41.828Z,5.33
2018-12-04T22:20:20.456Z,5.13
2018-12-04T22:22:59.371Z,5.20
2018-12-04T22:25:37.957Z,4.83
2018-12-04T22:28:16.789Z,4.83
2018-12-04T22:30:56.106Z,5.20
2018-12-04T22:33:34.691Z,4.03
2018-12-04T22:36:14.489Z,5.60
2018-12-04T22:38:53.326Z,4.93
2018-12-04T22:41:34.062Z,4.50
2018-12-04T22:44:14.562Z,3.43
2018-12-04T22:46:55.153Z,4.80
2018-12-04T22:49:35.694Z,4.00
2018-12-04T22:52:15.827Z,4.80
2018-12-04T22:54:55.589Z,4.77
2018-12-04T22:57:35.534Z,4.80
2018-12-04T23:00:20.926Z,4.47
2018-12-04T23:02:59.713Z,5.17
2018-12-04T23:05:38.761Z,5.07
2018-12-04T23:08:17.588Z,4.30
2018-12-04T23:10:57.165Z,4.87
2018-12-04T23:13:36.588Z,4.17
2018-12-04T23:16:15.751Z,4.90
2018-12-04T23:18:54.635Z,4.43
2018-12-04T23:21:33.404Z,5.00
2018-12-04T23:24:12.902Z,4.80
2018-12-04T23:26:52.272Z,7.10
2018-12-04T23:29:30.707Z,5.50
2018-12-04T23:32:09.243Z,5.70
2018-12-04T23:34:48.410Z,5.63
2018-12-04T23:37:27.206Z,4.93
2018-12-04T23:40:06.209Z,6.77
2018-12-04T23:42:45.633Z,5.53
2018-12-04T23:45:25.125Z,7.03
2018-12-04T23:48:03.842Z,5.87
2018-12-04T23:50:50.245Z,5.90
2018-12-04T23:53:29.430Z,7.00
2018-12-04T23:56:09.106Z,5.77
2018-12-04T23:58:48.674Z,5.67
